Yakima, WA (98903)

5:52 AM PST on December 20, 2014 (GMT -0800)
Ahtanum | Change Station
CLOSE
Current Station
Personal Weather Station
Location: YAKIMA, WA
Elevation: 1253 ft
Nearby Weather Stations
Active Advisory: Areal Flood Watch, Wind Advisory

Elev 1253 ft 46.56 °N, 120.62 °W | Updated 3 seconds ago

Overcast
Overcast
37.2 °F
Feels Like 37 °F
N
0.0
Wind Variable Wind from East
Gusts 2.2 mph

Today
High -- | Low -- °F
--% Chance of Precip.
Yesterday
High -- | Low -- °F
Precip. -- in
7:43 AM 4:17 PM
Waning Crescent, 3% visible
Pressure 29.84 in
Visibility 2.5 miles
Clouds Overcast 1000 ft
Windchill 37 °F
Dew Point 35 °F
Humidity 93%
Rainfall 0.05 in
Snow Depth Not available.
UV 0 out of 12
Pollen .50 out of 12
Air Quality Not available.
Flu Activity Not available.
SPECI KYKM 201322Z AUTO 00000KT 2 1/2SM -RA BR OVC010 03/02 A2984 RMK AO2 TWR VIS 3 CIG 009V014 P0001 T00330022

More Conditions Fewer Conditions

Pressure 29.84 in
Visibility 2.5 miles
Clouds Overcast 1000 ft
Windchill 37 °F
Dew Point 35 °F
Humidity 93%
Rainfall 0.05 in
Snow Depth Not available.
UV 0 out of 12
Pollen .50 out of 12
Air Quality Not available.
Flu Activity Not available.
SPECI KYKM 201322Z AUTO 00000KT 2 1/2SM -RA BR OVC010 03/02 A2984 RMK AO2 TWR VIS 3 CIG 009V014 P0001 T00330022

More Conditions Fewer Conditions

10-Day Weather Forecast

Almanac

Astronomy

Dec. 20, 2014 Rise Set
Actual Time
Civil Twilight
Nautical Twilight
Astronomical Twilight
Moon
Length of Visible Light
Length of Day
Tomorrow will be .
, % of the Moon is Illuminated

Today's Extremes

State Highs State Lows

Community

WunderPhotos

Upload Photos

1,779,171 photos uploaded!

WunderBlogs® & News

Nearby

Air Quality

  Air Quality AQ Index Pollutant
Not available.

Snow Depth

Station Depth Elevation

Earthquake Activity

City Distance Mag. Time & Date
Minimum magnitude displayed is 2.5.

Coastal Water Temperatures

Place Temperature

Nearby Weather Stations